Time;durP1;ratioP1;P1;durP2;ratioP2;P2;SDS_P1;SDS_P2;PMS_P1;PMS_P2;Temp;Humidity;BMP_temperature;BMP_pressure;BME280_temperature;BME280_humidity;BME280_pressure;Samples;Min_cycle;Max_cycle;Signal;HPM_P1;HPM_P2
2021/12/12 00:00:30;;;;;;;26.00;12.47;;;;;;;;;;4972790;28;20110;-77
2021/12/12 00:03:03;;;;;;;23.73;11.47;;;;;;;;;;4972891;28;20110;-76
2021/12/12 00:05:46;;;;;;;27.17;11.90;;;;;;;;;;4972509;28;20494;-75
2021/12/12 00:08:15;;;;;;;23.70;12.40;;;;;;;;;;4972511;28;20026;-76
2021/12/12 00:10:44;;;;;;;21.80;11.80;;;;;;;;;;4972256;28;20058;-76
2021/12/12 00:13:20;;;;;;;25.50;11.63;;;;;;;;;;4973003;28;20093;-76
2021/12/12 00:15:46;;;;;;;25.00;12.63;;;;;;;;;;4972348;28;20034;-76
2021/12/12 00:18:11;;;;;;;24.03;12.57;;;;;;;;;;4973856;28;20026;-76
2021/12/12 00:20:37;;;;;;;25.43;12.73;;;;;;;;;;4973409;28;20073;-75
2021/12/12 00:23:04;;;;;;;29.27;12.27;;;;;;;;;;4971992;28;20034;-76
2021/12/12 00:25:35;;;;;;;27.37;11.20;;;;;;;;;;4971454;28;20027;-77
2021/12/12 00:28:00;;;;;;;26.73;11.57;;;;;;;;;;4973795;28;20066;-75
2021/12/12 00:30:29;;;;;;;25.27;13.03;;;;;;;;;;4956036;28;20054;-77
2021/12/12 00:32:56;;;;;;;26.87;11.83;;;;;;;;;;4972710;28;20022;-77
2021/12/12 00:35:23;;;;;;;26.30;12.47;;;;;;;;;;4972481;28;20031;-75
2021/12/12 00:37:55;;;;;;;25.93;13.07;;;;;;;;;;4987781;28;20084;-76
2021/12/12 00:40:23;;;;;;;;;;;;;;;;;;4972384;28;20069;-74
2021/12/12 00:42:53;;;;;;;25.27;12.73;;;;;;;;;;4973092;28;19918;-76
2021/12/12 00:45:18;;;;;;;24.30;12.60;;;;;;;;;;4971715;28;20045;-76
2021/12/12 00:47:46;;;;;;;25.30;12.60;;;;;;;;;;4972870;28;20026;-74
2021/12/12 00:50:20;;;;;;;24.80;12.10;;;;;;;;;;4971731;28;20033;-76
2021/12/12 00:52:49;;;;;;;26.73;11.83;;;;;;;;;;4972889;28;20035;-75
2021/12/12 00:55:15;;;;;;;20.40;9.87;;;;;;;;;;4971627;28;20502;-74
2021/12/12 00:57:41;;;;;;;20.57;9.70;;;;;;;;;;4972588;28;20026;-75
2021/12/12 01:00:12;;;;;;;16.10;9.00;;;;;;;;;;4971606;28;20042;-75
2021/12/12 01:02:38;;;;;;;16.53;8.27;;;;;;;;;;4971396;28;20035;-76
2021/12/12 01:05:06;;;;;;;17.70;9.13;;;;;;;;;;4971555;28;20027;-76
2021/12/12 01:07:36;;;;;;;17.07;8.70;;;;;;;;;;4971334;28;20088;-76
2021/12/12 01:10:20;;;;;;;19.10;9.03;;;;;;;;;;4972493;28;20061;-73
2021/12/12 01:12:46;;;;;;;16.20;8.13;;;;;;;;;;4971187;28;20035;-74
2021/12/12 01:15:25;;;;;;;19.60;8.47;;;;;;;;;;4970862;28;20034;-75
2021/12/12 01:17:55;;;;;;;17.80;8.23;;;;;;;;;;4972089;28;20176;-76
2021/12/12 01:20:46;;;;;;;14.97;7.87;;;;;;;;;;4972046;28;20055;-76
2021/12/12 01:23:38;;;;;;;18.57;8.43;;;;;;;;;;4970809;28;20031;-74
2021/12/12 01:26:07;;;;;;;17.35;8.13;;;;;;;;;;4972437;28;20030;-75
2021/12/12 01:28:35;;;;;;;15.20;7.87;;;;;;;;;;4972209;28;20154;-76
2021/12/12 01:31:05;;;;;;;19.03;7.97;;;;;;;;;;4971017;28;20030;-73
2021/12/12 01:33:33;;;;;;;20.30;9.50;;;;;;;;;;4972398;28;20033;-75
2021/12/12 01:36:09;;;;;;;14.53;7.97;;;;;;;;;;4970198;28;20054;-75
2021/12/12 01:38:53;;;;;;;20.17;8.33;;;;;;;;;;4972096;28;20475;-75
2021/12/12 01:41:35;;;;;;;14.93;8.17;;;;;;;;;;4972211;28;20042;-75
2021/12/12 01:44:09;;;;;;;;;;;;;;;;;;4972310;28;20038;-74
2021/12/12 01:46:41;;;;;;;17.37;8.90;;;;;;;;;;4970666;28;19964;-75
2021/12/12 01:49:19;;;;;;;14.93;7.97;;;;;;;;;;4971998;28;20061;-75
2021/12/12 01:51:47;;;;;;;13.27;6.90;;;;;;;;;;4970565;28;20021;-76
2021/12/12 01:54:18;;;;;;;14.47;7.50;;;;;;;;;;4970307;28;20031;-74
2021/12/12 01:56:53;;;;;;;16.73;7.40;;;;;;;;;;4970544;28;20372;-75
2021/12/12 01:59:22;;;;;;;16.23;8.23;;;;;;;;;;4972140;28;20026;-76
2021/12/12 02:01:57;;;;;;;17.27;8.67;;;;;;;;;;4970343;28;20085;-75
2021/12/12 02:04:28;;;;;;;13.40;7.90;;;;;;;;;;4971753;28;20038;-74
2021/12/12 02:06:54;;;;;;;13.27;7.80;;;;;;;;;;4970288;28;20121;-75
2021/12/12 02:09:22;;;;;;;15.90;7.73;;;;;;;;;;4970483;28;20065;-75
2021/12/12 02:11:51;;;;;;;19.03;7.97;;;;;;;;;;4970144;28;20034;-76
2021/12/12 02:14:20;;;;;;;16.10;8.43;;;;;;;;;;4970511;28;20072;-76
2021/12/12 02:16:51;;;;;;;15.63;9.03;;;;;;;;;;4972856;28;20495;-74
2021/12/12 02:19:26;;;;;;;18.53;8.33;;;;;;;;;;4971419;28;20106;-76
2021/12/12 02:22:07;;;;;;;20.97;9.33;;;;;;;;;;4971791;28;20034;-74
2021/12/12 02:35:07;;;;;;;19.37;8.43;;;;;;;;;;4971309;28;20114;-75
2021/12/12 02:35:38;;;;;;;21.63;10.43;;;;;;;;;;4971458;28;20038;-74
2021/12/12 02:38:05;;;;;;;25.00;10.70;;;;;;;;;;4970059;28;20506;-75
2021/12/12 02:40:37;;;;;;;24.57;11.83;;;;;;;;;;4971367;28;20037;-75
2021/12/12 02:43:03;;;;;;;21.40;10.85;;;;;;;;;;4972322;28;20191;-75
2021/12/12 02:45:31;;;;;;;22.63;10.90;;;;;;;;;;4971427;28;20125;-76
2021/12/12 02:48:01;;;;;;;19.53;9.37;;;;;;;;;;4970445;28;20026;-76
2021/12/12 02:50:49;;;;;;;54.50;12.97;;;;;;;;;;4970943;28;20423;-74
2021/12/12 02:53:30;;;;;;;19.83;9.50;;;;;;;;;;4969579;28;20121;-76
2021/12/12 02:56:26;;;;;;;19.93;9.07;;;;;;;;;;4970689;28;20030;-75
2021/12/12 02:58:53;;;;;;;16.53;8.40;;;;;;;;;;4984955;28;20327;-75
2021/12/12 03:01:34;;;;;;;19.20;8.27;;;;;;;;;;4970770;28;20038;-75
2021/12/12 03:04:00;;;;;;;16.30;8.07;;;;;;;;;;4969215;28;20026;-74
2021/12/12 03:06:30;;;;;;;17.97;8.93;;;;;;;;;;4969757;28;20109;-75
2021/12/12 03:09:27;;;;;;;18.00;7.87;;;;;;;;;;4969330;28;20395;-75
2021/12/12 03:11:58;;;;;;;13.43;7.37;;;;;;;;;;4971868;28;20041;-75
2021/12/12 03:14:31;;;;;;;24.02;8.25;;;;;;;;;;4969380;28;20129;-76
2021/12/12 03:17:00;;;;;;;14.40;7.20;;;;;;;;;;4970697;28;20061;-75
2021/12/12 03:19:26;;;;;;;13.47;7.97;;;;;;;;;;4970522;28;20572;-76
2021/12/12 03:21:51;;;;;;;22.50;8.07;;;;;;;;;;4969307;28;20142;-75
2021/12/12 03:24:25;;;;;;;16.07;8.47;;;;;;;;;;4970603;28;20514;-76
2021/12/12 03:26:56;;;;;;;14.93;7.70;;;;;;;;;;4953319;28;20042;-76
2021/12/12 03:29:21;;;;;;;17.33;8.57;;;;;;;;;;4969201;28;20065;-76
2021/12/12 03:31:57;;;;;;;15.27;7.63;;;;;;;;;;4970588;28;20121;-75
2021/12/12 03:34:27;;;;;;;15.90;7.93;;;;;;;;;;4969261;28;20246;-75
2021/12/12 03:36:53;;;;;;;20.53;7.97;;;;;;;;;;4970581;28;20054;-75
2021/12/12 03:39:25;;;;;;;15.53;7.43;;;;;;;;;;4969350;28;20059;-75
2021/12/12 03:41:52;;;;;;;17.30;7.70;;;;;;;;;;4971079;28;20026;-74
2021/12/12 03:44:22;;;;;;;14.73;7.83;;;;;;;;;;4969430;28;20045;-76
2021/12/12 03:46:52;;;;;;;16.10;8.83;;;;;;;;;;4970544;28;20434;-76
2021/12/12 03:49:19;;;;;;;18.13;7.37;;;;;;;;;;4969305;28;20454;-76
2021/12/12 03:51:47;;;;;;;12.47;7.67;;;;;;;;;;4973263;28;20058;-75
2021/12/12 03:54:13;;;;;;;20.93;9.03;;;;;;;;;;4972951;28;20066;-75
2021/12/12 03:56:43;;;;;;;24.07;9.73;;;;;;;;;;4971113;28;20093;-75
2021/12/12 03:59:09;;;;;;;15.83;8.07;;;;;;;;;;4972743;28;20569;-75
2021/12/12 04:01:43;;;;;;;17.07;7.70;;;;;;;;;;4972692;28;20369;-75
2021/12/12 04:04:29;;;;;;;20.87;9.03;;;;;;;;;;4972399;28;20483;-75
2021/12/12 04:06:56;;;;;;;15.43;8.60;;;;;;;;;;4974082;28;20499;-73
2021/12/12 04:09:23;;;;;;;22.67;8.53;;;;;;;;;;4975046;28;20041;-76
2021/12/12 04:11:53;;;;;;;18.47;8.90;;;;;;;;;;4973626;28;20027;-75
2021/12/12 04:14:20;;;;;;;20.87;8.50;;;;;;;;;;4972195;28;20069;-75
2021/12/12 04:16:56;;;;;;;23.33;8.63;;;;;;;;;;4971825;28;20464;-75
2021/12/12 04:19:22;;;;;;;21.03;9.20;;;;;;;;;;4973393;28;20026;-74
2021/12/12 04:21:49;;;;;;;21.20;9.20;;;;;;;;;;4973421;28;20027;-75
2021/12/12 04:24:24;;;;;;;17.57;8.93;;;;;;;;;;4973380;28;20480;-75
2021/12/12 04:26:50;;;;;;;14.87;8.20;;;;;;;;;;4971929;28;20031;-74
2021/12/12 04:29:28;;;;;;;16.67;7.80;;;;;;;;;;4973694;28;20124;-74
2021/12/12 04:31:57;;;;;;;20.87;9.77;;;;;;;;;;4971567;28;20038;-75
2021/12/12 04:34:28;;;;;;;18.63;9.97;;;;;;;;;;4973348;28;20035;-76
2021/12/12 04:36:56;;;;;;;16.80;8.80;;;;;;;;;;4971543;28;20059;-76
2021/12/12 04:39:26;;;;;;;23.37;11.03;;;;;;;;;;4973241;28;20034;-75
2021/12/12 04:41:57;;;;;;;19.10;8.43;;;;;;;;;;4973074;28;20038;-74
2021/12/12 04:44:29;;;;;;;22.92;10.18;;;;;;;;;;4973022;28;20119;-75
2021/12/12 04:50:06;;;;;;;20.55;9.95;;;;;;;;;;4973059;28;20117;-75
2021/12/12 04:52:51;;;;;;;20.83;9.10;;;;;;;;;;4972958;28;20101;-75
2021/12/12 04:55:25;;;;;;;23.33;9.37;;;;;;;;;;4971800;28;20022;-76
2021/12/12 04:57:59;;;;;;;20.67;9.47;;;;;;;;;;4971526;28;20031;-74
2021/12/12 05:00:33;;;;;;;19.37;8.90;;;;;;;;;;4972721;28;20109;-75
2021/12/12 05:03:12;;;;;;;21.53;9.67;;;;;;;;;;4971396;28;20111;-75
2021/12/12 05:06:00;;;;;;;19.90;10.43;;;;;;;;;;4971118;28;20519;-74
2021/12/12 05:08:39;;;;;;;21.50;9.13;;;;;;;;;;4983671;28;20042;-74
2021/12/12 05:11:13;;;;;;;21.83;9.43;;;;;;;;;;4971827;28;20071;-75
2021/12/12 05:13:48;;;;;;;23.10;9.87;;;;;;;;;;4971489;28;20033;-73
2021/12/12 05:16:20;;;;;;;21.37;9.53;;;;;;;;;;4971082;28;20231;-75
2021/12/12 05:18:53;;;;;;;22.13;10.20;;;;;;;;;;4971384;28;20487;-76
2021/12/12 05:21:26;;;;;;;22.87;10.00;;;;;;;;;;4972419;28;20031;-75
2021/12/12 05:23:58;;;;;;;18.33;9.57;;;;;;;;;;4972178;28;20054;-75
2021/12/12 05:26:30;;;;;;;23.60;11.18;;;;;;;;;;4972364;28;20019;-75
2021/12/12 05:29:01;;;;;;;22.95;9.68;;;;;;;;;;4972096;28;20030;-76
2021/12/12 05:31:28;;;;;;;23.60;10.67;;;;;;;;;;4970937;28;20035;-74
2021/12/12 05:33:55;;;;;;;20.53;10.77;;;;;;;;;;4972353;28;20027;-75
2021/12/12 05:36:22;;;;;;;26.67;10.83;;;;;;;;;;4970569;28;20048;-76
2021/12/12 05:38:48;;;;;;;21.80;10.60;;;;;;;;;;4971968;28;20053;-74
2021/12/12 05:41:19;;;;;;;19.80;10.60;;;;;;;;;;4972091;28;20027;-76
2021/12/12 05:43:47;;;;;;;23.97;10.47;;;;;;;;;;4972280;28;20106;-75
2021/12/12 05:46:15;;;;;;;23.07;10.50;;;;;;;;;;4970508;28;20038;-76
2021/12/12 05:48:43;;;;;;;23.80;10.57;;;;;;;;;;4974251;28;20600;-77
2021/12/12 05:51:09;;;;;;;23.53;10.83;;;;;;;;;;4973292;28;20467;-77
2021/12/12 05:53:35;;;;;;;25.40;11.43;;;;;;;;;;4972890;28;20041;-76
2021/12/12 05:56:01;;;;;;;25.60;12.03;;;;;;;;;;4973347;28;20039;-77
2021/12/12 05:58:27;;;;;;;21.53;12.40;;;;;;;;;;4972504;28;20031;-76
2021/12/12 06:00:59;;;;;;;22.90;10.63;;;;;;;;;;4971387;28;20475;-76
2021/12/12 06:03:27;;;;;;;21.40;11.27;;;;;;;;;;4971318;28;20390;-75
2021/12/12 06:05:55;;;;;;;20.53;10.13;;;;;;;;;;4970921;28;20110;-75
2021/12/12 06:08:22;;;;;;;27.23;12.23;;;;;;;;;;4971105;28;20489;-74
2021/12/12 06:10:49;;;;;;;22.17;11.23;;;;;;;;;;4970594;28;20066;-74
2021/12/12 06:13:17;;;;;;;25.97;10.97;;;;;;;;;;4969865;28;20058;-76
2021/12/12 06:15:46;;;;;;;21.53;10.87;;;;;;;;;;4955725;28;20472;-73
2021/12/12 06:18:13;;;;;;;26.17;11.80;;;;;;;;;;4970678;28;20054;-71
2021/12/12 06:20:40;;;;;;;26.60;11.40;;;;;;;;;;4970683;28;20089;-72
2021/12/12 06:23:08;;;;;;;23.30;10.13;;;;;;;;;;4971884;28;20033;-71
2021/12/12 06:25:34;;;;;;;25.13;10.40;;;;;;;;;;4972091;28;20026;-72
2021/12/12 06:28:06;;;;;;;28.60;10.93;;;;;;;;;;4971908;28;20452;-71
2021/12/12 06:30:31;;;;;;;26.27;10.10;;;;;;;;;;4972140;28;20046;-72
2021/12/12 06:32:57;;;;;;;26.40;11.30;;;;;;;;;;4971797;28;20464;-73
2021/12/12 06:35:24;;;;;;;23.77;11.10;;;;;;;;;;4986698;28;20121;-72
2021/12/12 06:37:50;;;;;;;26.23;10.03;;;;;;;;;;4986335;28;20451;-73
2021/12/12 06:40:19;;;;;;;22.80;10.93;;;;;;;;;;4971852;28;20799;-73
2021/12/12 06:42:47;;;;;;;22.43;10.20;;;;;;;;;;4971731;28;20134;-73
2021/12/12 06:45:13;;;;;;;28.57;11.47;;;;;;;;;;4970277;28;20030;-74
2021/12/12 06:47:40;;;;;;;34.17;12.20;;;;;;;;;;4971642;28;20599;-72
2021/12/12 06:50:07;;;;;;;26.23;10.13;;;;;;;;;;4971370;28;20110;-73
2021/12/12 06:52:33;;;;;;;29.80;11.40;;;;;;;;;;4971612;28;20386;-73
2021/12/12 06:54:59;;;;;;;22.00;11.07;;;;;;;;;;4970256;28;20564;-73
2021/12/12 06:57:25;;;;;;;24.77;10.87;;;;;;;;;;4970398;28;20027;-72
2021/12/12 06:59:51;;;;;;;22.20;11.40;;;;;;;;;;4971864;28;20433;-73
2021/12/12 07:02:19;;;;;;;28.83;12.07;;;;;;;;;;4969908;28;20029;-72
2021/12/12 07:04:45;;;;;;;30.40;11.43;;;;;;;;;;4969787;28;20062;-73
2021/12/12 07:07:14;;;;;;;27.83;9.87;;;;;;;;;;4969594;28;20438;-72
2021/12/12 07:09:41;;;;;;;26.50;11.70;;;;;;;;;;4970000;28;20054;-72
2021/12/12 07:12:10;;;;;;;25.00;10.40;;;;;;;;;;4970075;28;20175;-71
2021/12/12 07:14:37;;;;;;;20.20;9.67;;;;;;;;;;4971515;28;20439;-73
2021/12/12 07:17:04;;;;;;;23.23;10.97;;;;;;;;;;4970274;28;20051;-72
2021/12/12 07:19:30;;;;;;;22.83;12.17;;;;;;;;;;4973390;28;20023;-73
2021/12/12 07:22:01;;;;;;;22.93;11.33;;;;;;;;;;4972392;28;20066;-72
2021/12/12 07:24:27;;;;;;;21.23;9.40;;;;;;;;;;4972684;28;20145;-71
2021/12/12 07:26:54;;;;;;;22.47;10.80;;;;;;;;;;4970421;28;20086;-72
2021/12/12 07:29:20;;;;;;;26.60;12.50;;;;;;;;;;4969670;28;20421;-73
2021/12/12 07:31:46;;;;;;;19.53;10.60;;;;;;;;;;4970114;28;20027;-72
2021/12/12 07:34:14;;;;;;;24.60;12.13;;;;;;;;;;4988511;28;20391;-72
2021/12/12 07:36:53;;;;;;;23.37;10.77;;;;;;;;;;4974811;28;20410;-72
2021/12/12 07:39:22;;;;;;;22.57;10.27;;;;;;;;;;4973700;28;20110;-72
2021/12/12 07:41:49;;;;;;;20.17;10.67;;;;;;;;;;4973953;28;20046;-72
2021/12/12 07:44:18;;;;;;;22.43;10.23;;;;;;;;;;4957457;28;20546;-73
2021/12/12 07:46:45;;;;;;;21.47;10.27;;;;;;;;;;4973809;28;20030;-72
2021/12/12 07:49:11;;;;;;;31.73;12.20;;;;;;;;;;4975332;28;20555;-71
2021/12/12 07:51:39;;;;;;;22.77;11.47;;;;;;;;;;4974824;28;20057;-72
2021/12/12 07:54:07;;;;;;;23.53;11.10;;;;;;;;;;4973708;28;20554;-72
2021/12/12 07:56:35;;;;;;;25.87;10.67;;;;;;;;;;4973357;28;20074;-73
2021/12/12 07:59:06;;;;;;;24.00;10.80;;;;;;;;;;4973226;28;20034;-73
2021/12/12 08:01:33;;;;;;;21.40;9.87;;;;;;;;;;4974249;28;20019;-73
2021/12/12 08:03:59;;;;;;;23.47;10.03;;;;;;;;;;4974311;28;20084;-73
2021/12/12 08:06:25;;;;;;;25.43;11.40;;;;;;;;;;4973051;28;20026;-73
2021/12/12 08:08:53;;;;;;;20.10;10.80;;;;;;;;;;4974392;28;20037;-73
2021/12/12 08:11:24;;;;;;;20.37;11.67;;;;;;;;;;4972703;28;20117;-72
2021/12/12 08:13:50;;;;;;;27.63;11.82;;;;;;;;;;4972889;28;20090;-72
2021/12/12 08:16:19;;;;;;;23.33;11.63;;;;;;;;;;4973499;28;20090;-72
2021/12/12 08:18:45;;;;;;;20.90;10.70;;;;;;;;;;4972718;28;20027;-73
2021/12/12 08:21:12;;;;;;;24.37;11.17;;;;;;;;;;4972719;28;20479;-73
2021/12/12 08:23:38;;;;;;;26.90;11.47;;;;;;;;;;4973363;28;20057;-72
2021/12/12 08:26:07;;;;;;;28.33;13.10;;;;;;;;;;4974287;28;20030;-72
2021/12/12 08:28:33;;;;;;;26.30;13.10;;;;;;;;;;4974702;28;20026;-72
2021/12/12 08:30:59;;;;;;;24.17;11.97;;;;;;;;;;4975347;28;20031;-73
2021/12/12 08:33:26;;;;;;;27.50;12.50;;;;;;;;;;4975055;28;20061;-72
2021/12/12 08:35:55;;;;;;;27.90;12.83;;;;;;;;;;4975178;28;20499;-73
2021/12/12 08:38:21;;;;;;;35.13;14.17;;;;;;;;;;4956213;28;20475;-72
2021/12/12 08:40:51;;;;;;;26.97;12.97;;;;;;;;;;4973607;28;20088;-73
2021/12/12 08:43:19;;;;;;;25.57;12.73;;;;;;;;;;4971929;28;20527;-73
2021/12/12 08:45:55;;;;;;;28.60;12.80;;;;;;;;;;4970774;28;20051;-73
2021/12/12 08:48:24;;;;;;;24.13;13.50;;;;;;;;;;4972325;28;20383;-73
2021/12/12 08:50:55;;;;;;;30.07;12.57;;;;;;;;;;4972851;28;20023;-73
2021/12/12 08:53:22;;;;;;;36.17;13.15;;;;;;;;;;4973192;28;20100;-71
2021/12/12 08:55:50;;;;;;;28.50;13.93;;;;;;;;;;4972036;28;20031;-73
2021/12/12 08:58:19;;;;;;;27.80;13.53;;;;;;;;;;4971894;28;20026;-72
2021/12/12 09:00:50;;;;;;;28.23;14.40;;;;;;;;;;4955735;28;20034;-73
2021/12/12 09:03:44;;;;;;;28.17;12.83;;;;;;;;;;4971527;28;20034;-73
2021/12/12 09:06:14;;;;;;;25.13;12.57;;;;;;;;;;4972476;28;20030;-72
2021/12/12 09:08:50;;;;;;;24.80;12.33;;;;;;;;;;4971572;28;20074;-72
2021/12/12 09:11:44;;;;;;;25.73;12.00;;;;;;;;;;4971356;28;20023;-72
2021/12/12 09:14:32;;;;;;;25.67;12.43;;;;;;;;;;4971521;28;20502;-73
2021/12/12 09:17:06;;;;;;;25.60;11.77;;;;;;;;;;4972868;28;20018;-72
2021/12/12 09:19:47;;;;;;;23.93;11.87;;;;;;;;;;4971326;28;20050;-73
2021/12/12 09:22:29;;;;;;;25.07;11.03;;;;;;;;;;4971049;28;20089;-73
2021/12/12 09:25:19;;;;;;;27.80;11.83;;;;;;;;;;4971546;28;20027;-71
2021/12/12 09:27:51;;;;;;;26.87;13.50;;;;;;;;;;4972471;28;20562;-71
2021/12/12 09:30:20;;;;;;;26.97;11.50;;;;;;;;;;4972470;28;20033;-73
2021/12/12 09:33:12;;;;;;;26.43;12.83;;;;;;;;;;4972425;28;20101;-73
2021/12/12 09:35:49;;;;;;;24.88;11.90;;;;;;;;;;4970973;28;20038;-74
2021/12/12 09:38:18;;;;;;;22.33;10.90;;;;;;;;;;4972234;28;20027;-73
2021/12/12 09:41:08;;;;;;;25.57;12.03;;;;;;;;;;4970984;28;20038;-74
2021/12/12 09:44:13;;;;;;;26.47;12.63;;;;;;;;;;4972501;28;20030;-74
2021/12/12 09:46:44;;;;;;;27.43;12.77;;;;;;;;;;4972422;28;20130;-72
2021/12/12 09:52:22;;;;;;;26.37;13.53;;;;;;;;;;4980501;28;20487;-74
2021/12/12 09:55:12;;;;;;;33.97;13.03;;;;;;;;;;4970971;28;20037;-72
2021/12/12 09:57:52;;;;;;;26.30;12.23;;;;;;;;;;4971900;28;20077;-72
2021/12/12 10:00:29;;;;;;;21.63;12.00;;;;;;;;;;4970471;28;20023;-73
2021/12/12 10:03:49;;;;;;;25.23;12.77;;;;;;;;;;4971681;28;20146;-72
2021/12/12 10:06:28;;;;;;;24.37;11.37;;;;;;;;;;4969581;28;20051;-73
2021/12/12 10:09:06;;;;;;;26.77;12.13;;;;;;;;;;4971698;28;20046;-73
2021/12/12 10:11:43;;;;;;;33.40;13.40;;;;;;;;;;4972189;28;20360;-73
2021/12/12 10:14:31;;;;;;;23.63;11.43;;;;;;;;;;4970597;28;20026;-74
2021/12/12 10:17:19;;;;;;;24.67;11.33;;;;;;;;;;4972204;28;20109;-73
2021/12/12 10:19:54;;;;;;;23.70;11.07;;;;;;;;;;4970687;28;20030;-73
2021/12/12 10:22:25;;;;;;;22.27;9.77;;;;;;;;;;4971871;28;20114;-73
2021/12/12 10:25:14;;;;;;;19.77;9.87;;;;;;;;;;4970933;28;20027;-72
2021/12/12 10:28:03;;;;;;;16.43;9.27;;;;;;;;;;4971113;28;20027;-73
2021/12/12 10:30:38;;;;;;;20.97;10.00;;;;;;;;;;4986355;28;20071;-73
2021/12/12 10:33:14;;;;;;;21.50;10.70;;;;;;;;;;4971903;28;20031;-73
2021/12/12 10:36:20;;;;;;;16.93;8.93;;;;;;;;;;4970529;28;20387;-73
2021/12/12 10:39:07;;;;;;;20.17;8.97;;;;;;;;;;4988421;28;20034;-73
2021/12/12 10:41:35;;;;;;;18.63;8.73;;;;;;;;;;4972801;28;20308;-72
2021/12/12 10:44:09;;;;;;;20.77;9.40;;;;;;;;;;4970662;28;20088;-73
2021/12/12 10:47:06;;;;;;;18.57;9.17;;;;;;;;;;4970822;28;20062;-73
2021/12/12 10:49:51;;;;;;;20.40;9.37;;;;;;;;;;4970342;28;20033;-71
2021/12/12 10:52:33;;;;;;;18.60;9.63;;;;;;;;;;4970368;28;20110;-72
2021/12/12 10:55:07;;;;;;;16.20;8.68;;;;;;;;;;4970113;28;20089;-73
2021/12/12 10:57:36;;;;;;;21.00;8.53;;;;;;;;;;4971572;28;20105;-74
2021/12/12 11:00:22;;;;;;;24.10;9.67;;;;;;;;;;4970322;28;20085;-73
2021/12/12 11:02:59;;;;;;;22.70;9.77;;;;;;;;;;4971685;28;20029;-73
2021/12/12 11:05:41;;;;;;;16.83;8.37;;;;;;;;;;4970344;28;20033;-73
2021/12/12 11:08:20;;;;;;;21.10;8.50;;;;;;;;;;4971191;28;20026;-74
2021/12/12 11:10:47;;;;;;;22.43;8.93;;;;;;;;;;4970373;28;20069;-73
2021/12/12 11:13:35;;;;;;;16.93;8.27;;;;;;;;;;4970097;28;20061;-73
2021/12/12 11:16:11;;;;;;;16.20;8.13;;;;;;;;;;4970268;28;20491;-73
2021/12/12 11:18:54;;;;;;;16.80;7.70;;;;;;;;;;4972294;28;20085;-73
2021/12/12 11:21:27;;;;;;;16.80;7.77;;;;;;;;;;4971078;28;20472;-74
2021/12/12 11:24:11;;;;;;;17.93;7.27;;;;;;;;;;4969877;28;20492;-74
2021/12/12 11:26:47;;;;;;;19.07;8.97;;;;;;;;;;4970081;28;20042;-71
2021/12/12 11:29:24;;;;;;;12.60;6.57;;;;;;;;;;4969744;28;20514;-73
2021/12/12 11:31:58;;;;;;;16.63;8.50;;;;;;;;;;4971579;28;20023;-73
2021/12/12 11:34:27;;;;;;;17.13;8.13;;;;;;;;;;4969794;28;20061;-73
2021/12/12 11:37:30;;;;;;;18.43;7.47;;;;;;;;;;4969701;28;20535;-73
2021/12/12 11:40:19;;;;;;;23.50;8.43;;;;;;;;;;4971186;28;20030;-74
2021/12/12 11:42:45;;;;;;;17.93;9.07;;;;;;;;;;4972924;28;20387;-72
2021/12/12 11:45:21;;;;;;;18.33;8.53;;;;;;;;;;4970049;28;20026;-73
2021/12/12 11:47:58;;;;;;;16.07;8.27;;;;;;;;;;4970707;28;20034;-73
2021/12/12 11:50:54;;;;;;;14.57;7.27;;;;;;;;;;4970072;28;20023;-73
2021/12/12 11:53:43;;;;;;;16.17;7.87;;;;;;;;;;4969414;28;20027;-73
2021/12/12 11:56:23;;;;;;;14.43;7.57;;;;;;;;;;4971153;28;20097;-72
2021/12/12 11:59:13;;;;;;;14.23;6.67;;;;;;;;;;4970003;28;20054;-73
2021/12/12 12:02:04;;;;;;;16.30;7.07;;;;;;;;;;4969981;28;20061;-75
2021/12/12 12:04:36;;;;;;;19.20;8.40;;;;;;;;;;4970216;28;20134;-73
2021/12/12 12:07:13;;;;;;;18.55;6.43;;;;;;;;;;4969630;28;20030;-73
2021/12/12 12:09:53;;;;;;;13.83;7.10;;;;;;;;;;4969223;28;20081;-72
2021/12/12 12:12:56;;;;;;;13.27;7.33;;;;;;;;;;4969002;28;20506;-73
2021/12/12 12:15:21;;;;;;;13.27;7.50;;;;;;;;;;4969309;28;20141;-72
2021/12/12 12:17:59;;;;;;;11.20;6.87;;;;;;;;;;4969648;28;20535;-72
2021/12/12 12:20:46;;;;;;;14.83;7.60;;;;;;;;;;4973629;28;20034;-72
2021/12/12 12:23:18;;;;;;;13.67;6.20;;;;;;;;;;4974136;28;20364;-74
2021/12/12 12:28:54;;;;;;;15.10;7.37;;;;;;;;;;4974723;28;20049;-71
2021/12/12 12:31:45;;;;;;;16.87;7.87;;;;;;;;;;4957662;28;20030;-73
2021/12/12 12:34:48;;;;;;;13.57;6.80;;;;;;;;;;4972415;28;20023;-74
2021/12/12 12:37:51;;;;;;;10.07;6.03;;;;;;;;;;4972263;28;20277;-72
2021/12/12 12:40:36;;;;;;;10.80;5.60;;;;;;;;;;4972282;28;20038;-73
2021/12/12 12:43:39;;;;;;;14.20;6.97;;;;;;;;;;4972299;28;20042;-74
2021/12/12 12:46:43;;;;;;;12.90;6.07;;;;;;;;;;4974051;28;20552;-73
2021/12/12 12:49:27;;;;;;;13.33;6.67;;;;;;;;;;4972567;28;20030;-73
2021/12/12 12:52:14;;;;;;;17.07;7.83;;;;;;;;;;4972527;28;20037;-72
2021/12/12 12:55:25;;;;;;;12.37;6.30;;;;;;;;;;4972880;28;20049;-73
2021/12/12 12:57:53;;;;;;;12.13;6.37;;;;;;;;;;4988954;28;20058;-73
2021/12/12 13:00:23;;;;;;;12.00;6.33;;;;;;;;;;4972234;28;20129;-72
2021/12/12 13:02:51;;;;;;;12.73;7.27;;;;;;;;;;4972152;28;20038;-72
2021/12/12 13:05:54;;;;;;;15.77;7.47;;;;;;;;;;4972046;28;20511;-73
2021/12/12 13:08:38;;;;;;;;;;;;;;;;;;4972503;28;20038;-73
2021/12/12 13:11:07;;;;;;;9.33;6.03;;;;;;;;;;4988303;28;20331;-73
2021/12/12 13:13:47;;;;;;;14.40;7.07;;;;;;;;;;4973195;28;20570;-73
2021/12/12 13:16:30;;;;;;;13.47;6.70;;;;;;;;;;4971699;28;20150;-73
2021/12/12 13:19:13;;;;;;;17.57;7.63;;;;;;;;;;4973149;28;20059;-73
2021/12/12 13:21:39;;;;;;;16.63;7.70;;;;;;;;;;4972997;28;20031;-72
2021/12/12 13:24:28;;;;;;;13.40;7.03;;;;;;;;;;4973097;28;20518;-73
2021/12/12 13:27:51;;;;;;;17.37;8.33;;;;;;;;;;4972985;28;20023;-74
2021/12/12 13:30:27;;;;;;;16.70;8.23;;;;;;;;;;4972709;28;20023;-73
2021/12/12 13:33:05;;;;;;;20.17;8.07;;;;;;;;;;4972577;28;20035;-77
2021/12/12 13:35:31;;;;;;;11.03;6.77;;;;;;;;;;4971002;28;20209;-73
2021/12/12 13:38:18;;;;;;;35.80;8.37;;;;;;;;;;4972802;28;20145;-74
2021/12/12 13:41:16;;;;;;;13.40;6.33;;;;;;;;;;4971207;28;20025;-73
2021/12/12 13:44:01;;;;;;;13.17;7.33;;;;;;;;;;4978202;28;20046;-73
2021/12/12 13:46:50;;;;;;;12.70;7.30;;;;;;;;;;4971132;28;20058;-72
2021/12/12 13:49:22;;;;;;;16.57;6.90;;;;;;;;;;4986629;28;20037;-73
2021/12/12 13:51:50;;;;;;;12.45;6.93;;;;;;;;;;4971083;28;20060;-72
2021/12/12 13:54:31;;;;;;;14.03;6.40;;;;;;;;;;4972461;28;20026;-73
2021/12/12 13:57:14;;;;;;;12.13;7.00;;;;;;;;;;4971213;28;20538;-73
2021/12/12 13:59:58;;;;;;;13.30;7.17;;;;;;;;;;4971024;28;20485;-73
2021/12/12 14:02:25;;;;;;;12.50;7.37;;;;;;;;;;4971893;28;20111;-73
2021/12/12 14:05:21;;;;;;;14.47;6.83;;;;;;;;;;4972203;28;20034;-73
2021/12/12 14:08:20;;;;;;;13.23;6.43;;;;;;;;;;4970917;28;20023;-73
2021/12/12 14:10:52;;;;;;;11.20;6.23;;;;;;;;;;4972232;28;20488;-72
2021/12/12 14:13:47;;;;;;;9.93;6.03;;;;;;;;;;4970811;28;20054;-73
2021/12/12 14:16:12;;;;;;;10.50;6.40;;;;;;;;;;4970231;28;20384;-72
2021/12/12 14:18:52;;;;;;;14.63;6.50;;;;;;;;;;4971876;28;20088;-74
2021/12/12 14:21:22;;;;;;;14.00;7.07;;;;;;;;;;4971933;28;20468;-75
2021/12/12 14:23:48;;;;;;;21.90;7.20;;;;;;;;;;4970781;28;20031;-73
2021/12/12 14:26:34;;;;;;;13.43;6.23;;;;;;;;;;4972160;28;20029;-73
2021/12/12 14:29:02;;;;;;;12.07;6.10;;;;;;;;;;4971056;28;20039;-74
2021/12/12 14:31:34;;;;;;;12.60;7.17;;;;;;;;;;4971693;28;20235;-73
2021/12/12 14:34:09;;;;;;;14.45;7.57;;;;;;;;;;4971808;28;20062;-72
2021/12/12 14:36:41;;;;;;;12.63;6.93;;;;;;;;;;4970158;28;20163;-73
2021/12/12 14:39:07;;;;;;;16.15;6.82;;;;;;;;;;4971658;28;20023;-73
2021/12/12 14:41:38;;;;;;;15.23;9.13;;;;;;;;;;4971551;28;20510;-74
2021/12/12 14:44:17;;;;;;;13.13;6.60;;;;;;;;;;4969593;28;20026;-74
2021/12/12 14:46:47;;;;;;;12.43;6.23;;;;;;;;;;4970142;28;20311;-74
2021/12/12 14:49:18;;;;;;;8.77;5.17;;;;;;;;;;4971695;28;20105;-73
2021/12/12 14:51:57;;;;;;;15.15;7.53;;;;;;;;;;4971801;28;20023;-72
2021/12/12 14:54:26;;;;;;;13.73;6.23;;;;;;;;;;4970102;28;20097;-72
2021/12/12 14:56:59;;;;;;;11.47;5.20;;;;;;;;;;4970043;28;20033;-75
2021/12/12 14:59:31;;;;;;;10.03;5.60;;;;;;;;;;4970417;28;20037;-74
2021/12/12 15:02:18;;;;;;;7.88;4.75;;;;;;;;;;4970444;28;20039;-73
2021/12/12 15:05:28;;;;;;;14.20;6.97;;;;;;;;;;4971850;28;20141;-74
2021/12/12 15:07:57;;;;;;;7.93;5.10;;;;;;;;;;4987789;28;20038;-74
2021/12/12 15:10:23;;;;;;;10.63;5.20;;;;;;;;;;4987569;28;20112;-73
2021/12/12 15:12:51;;;;;;;7.90;5.50;;;;;;;;;;4985535;28;20490;-72
2021/12/12 15:15:33;;;;;;;10.67;4.43;;;;;;;;;;4970686;28;20031;-74
2021/12/12 15:18:04;;;;;;;17.40;6.40;;;;;;;;;;4969740;28;20027;-73
2021/12/12 15:20:35;;;;;;;11.70;5.30;;;;;;;;;;4969833;28;20606;-72
2021/12/12 15:23:06;;;;;;;9.25;6.20;;;;;;;;;;4970000;28;20027;-73
2021/12/12 15:26:06;;;;;;;9.53;5.60;;;;;;;;;;4969153;28;20030;-72